createdAt,value
2018-02-25T00:00:23.157Z,20.53
2018-02-25T00:00:54.781Z,20.56
2018-02-25T00:01:26.406Z,20.59
2018-02-25T00:01:58.030Z,20.65
2018-02-25T00:02:30.681Z,20.68
2018-02-25T00:03:02.306Z,20.72
2018-02-25T00:03:33.939Z,20.76
2018-02-25T00:04:05.566Z,20.74
2018-02-25T00:04:37.194Z,20.80
2018-02-25T00:05:08.827Z,20.82
2018-02-25T00:05:40.454Z,20.81
2018-02-25T00:06:12.122Z,20.82
2018-02-25T00:06:43.746Z,20.82
2018-02-25T00:07:15.391Z,20.80
2018-02-25T00:07:47.014Z,20.80
2018-02-25T00:08:18.642Z,20.78
2018-02-25T00:08:50.270Z,20.80
2018-02-25T00:09:21.894Z,20.79
2018-02-25T00:09:53.571Z,20.78
2018-02-25T00:10:25.202Z,20.80
2018-02-25T00:10:56.830Z,20.81
2018-02-25T00:11:28.455Z,20.83
2018-02-25T00:12:00.081Z,20.82
2018-02-25T00:12:31.710Z,20.82
2018-02-25T00:13:03.343Z,20.82
2018-02-25T00:13:34.974Z,20.84
2018-02-25T00:14:06.642Z,20.85
2018-02-25T00:14:38.267Z,20.85
2018-02-25T00:15:09.898Z,20.86
2018-02-25T00:15:41.519Z,20.84
2018-02-25T00:16:13.154Z,20.85
2018-02-25T00:16:44.778Z,20.83
2018-02-25T00:17:16.407Z,20.85
2018-02-25T00:17:48.030Z,20.83
2018-02-25T00:18:19.658Z,20.86
2018-02-25T00:18:51.295Z,20.87
2018-02-25T00:19:23.689Z,20.83
2018-02-25T00:19:55.314Z,20.83
2018-02-25T00:20:26.943Z,20.84
2018-02-25T00:20:58.590Z,20.85
2018-02-25T00:21:30.230Z,20.85
2018-02-25T00:22:01.906Z,20.86
2018-02-25T00:22:33.529Z,20.87
2018-02-25T00:23:05.154Z,20.88
2018-02-25T00:23:36.782Z,20.89
2018-02-25T00:24:08.443Z,20.89
2018-02-25T00:24:40.071Z,20.89
2018-02-25T00:25:11.697Z,20.90
2018-02-25T00:25:43.318Z,20.90
2018-02-25T00:26:14.947Z,20.91
2018-02-25T00:26:46.586Z,20.95
2018-02-25T00:27:18.262Z,20.94
2018-02-25T00:27:49.886Z,20.91
2018-02-25T00:28:21.514Z,20.93
2018-02-25T00:28:53.142Z,20.91
2018-02-25T00:29:24.766Z,20.95
2018-02-25T00:29:56.390Z,20.95
2018-02-25T00:30:28.019Z,20.98
2018-02-25T00:30:59.654Z,20.92
2018-02-25T00:31:31.286Z,20.90
2018-02-25T00:32:02.915Z,20.92
2018-02-25T00:32:34.546Z,20.94
2018-02-25T00:33:06.175Z,20.94
2018-02-25T00:33:37.798Z,20.93
2018-02-25T00:34:09.482Z,20.91
2018-02-25T00:34:41.106Z,20.91
2018-02-25T00:35:12.730Z,20.89
2018-02-25T00:35:44.356Z,20.89
2018-02-25T00:36:15.983Z,20.91
2018-02-25T00:36:47.615Z,20.91
2018-02-25T00:37:19.246Z,20.94
2018-02-25T00:37:50.879Z,20.92
2018-02-25T00:38:22.506Z,20.93
2018-02-25T00:38:54.138Z,20.93
2018-02-25T00:39:25.807Z,20.95
2018-02-25T00:39:57.437Z,20.95
2018-02-25T00:40:29.062Z,20.97
2018-02-25T00:41:00.686Z,20.97
2018-02-25T00:41:32.431Z,21.00
2018-02-25T00:42:04.058Z,20.99
2018-02-25T00:42:35.686Z,21.00
2018-02-25T00:43:07.309Z,20.99
2018-02-25T00:43:38.939Z,20.98
2018-02-25T00:44:10.563Z,20.96
2018-02-25T00:44:42.194Z,20.95
2018-02-25T00:45:13.838Z,20.98
2018-02-25T00:45:45.477Z,20.98
2018-02-25T00:46:17.136Z,20.91
2018-02-25T00:46:48.762Z,20.90
2018-02-25T00:47:20.386Z,20.89
2018-02-25T00:47:52.014Z,20.90
2018-02-25T00:48:23.686Z,20.87
2018-02-25T00:48:55.315Z,20.87
2018-02-25T00:49:26.938Z,20.88
2018-02-25T00:49:58.563Z,20.88
2018-02-25T00:50:30.190Z,20.87
2018-02-25T00:51:01.818Z,20.85
2018-02-25T00:51:33.462Z,20.83
2018-02-25T00:52:05.103Z,20.80
2018-02-25T00:52:36.726Z,20.79
2018-02-25T00:53:08.349Z,20.75
2018-02-25T00:53:39.982Z,20.73
2018-02-25T00:54:11.631Z,20.72
2018-02-25T00:54:43.320Z,20.70
2018-02-25T00:55:14.955Z,20.68
2018-02-25T00:55:46.587Z,20.66
2018-02-25T00:56:18.290Z,20.66
2018-02-25T00:56:49.930Z,20.66
2018-02-25T00:57:21.569Z,20.65
2018-02-25T00:57:53.202Z,20.64
2018-02-25T00:58:24.826Z,20.63
2018-02-25T00:58:56.450Z,20.60
2018-02-25T00:59:28.079Z,20.57
2018-02-25T00:59:59.710Z,20.57
2018-02-25T01:00:31.338Z,20.56
2018-02-25T01:01:02.965Z,20.52
2018-02-25T01:01:34.650Z,20.51
2018-02-25T01:02:06.274Z,20.46
2018-02-25T01:02:37.897Z,20.46
2018-02-25T01:03:09.522Z,20.44
2018-02-25T01:03:41.142Z,20.42
2018-02-25T01:04:12.769Z,20.40
2018-02-25T01:04:44.394Z,20.38
2018-02-25T01:05:16.023Z,20.37
2018-02-25T01:05:47.654Z,20.36
2018-02-25T01:06:19.297Z,20.37
2018-02-25T01:06:50.922Z,20.35
2018-02-25T01:07:22.551Z,20.36
2018-02-25T01:07:54.178Z,20.35
2018-02-25T01:08:25.807Z,20.33
2018-02-25T01:08:57.431Z,20.33
2018-02-25T01:09:29.058Z,20.32
2018-02-25T01:10:00.681Z,20.30
2018-02-25T01:10:32.306Z,20.29
2018-02-25T01:11:03.930Z,20.28
2018-02-25T01:11:35.603Z,20.29
2018-02-25T01:12:07.226Z,20.28
2018-02-25T01:12:38.850Z,20.26
2018-02-25T01:13:10.475Z,20.23
2018-02-25T01:13:42.106Z,20.23
2018-02-25T01:14:13.735Z,20.22
2018-02-25T01:14:45.402Z,20.22
2018-02-25T01:15:17.025Z,20.22
2018-02-25T01:15:48.650Z,20.22
2018-02-25T01:16:20.278Z,20.21
2018-02-25T01:16:51.917Z,20.18
2018-02-25T01:17:23.550Z,20.17
2018-02-25T01:17:55.174Z,20.19
2018-02-25T01:18:26.805Z,20.18
2018-02-25T01:18:58.435Z,20.19
2018-02-25T01:19:30.098Z,20.18
2018-02-25T01:20:01.722Z,20.19
2018-02-25T01:20:33.350Z,20.18
2018-02-25T01:21:05.026Z,20.16
2018-02-25T01:21:36.649Z,20.15
2018-02-25T01:22:08.275Z,20.16
2018-02-25T01:22:39.898Z,20.14
2018-02-25T01:23:11.522Z,20.14
2018-02-25T01:23:43.146Z,20.12
2018-02-25T01:24:14.769Z,20.13
2018-02-25T01:24:46.393Z,20.14
2018-02-25T01:25:18.020Z,20.16
2018-02-25T01:25:49.647Z,20.16
2018-02-25T01:26:21.321Z,20.16
2018-02-25T01:26:52.951Z,20.17
2018-02-25T01:27:24.577Z,20.18
2018-02-25T01:27:56.204Z,20.20
2018-02-25T01:28:27.839Z,20.25
2018-02-25T01:28:59.470Z,20.24
2018-02-25T01:29:31.094Z,20.25
2018-02-25T01:30:02.726Z,20.25
2018-02-25T01:30:34.354Z,20.28
2018-02-25T01:31:05.986Z,20.29
2018-02-25T01:31:37.619Z,20.30
2018-02-25T01:32:09.299Z,20.32
2018-02-25T01:32:40.922Z,20.34
2018-02-25T01:33:12.546Z,20.38
2018-02-25T01:33:44.173Z,20.40
2018-02-25T01:34:15.799Z,20.44
2018-02-25T01:34:47.421Z,20.44
2018-02-25T01:35:19.054Z,20.45
2018-02-25T01:35:50.681Z,20.47
2018-02-25T01:36:22.339Z,20.49
2018-02-25T01:36:53.962Z,20.52
2018-02-25T01:37:25.631Z,20.56
2018-02-25T01:37:57.262Z,20.57
2018-02-25T01:38:28.934Z,20.60
2018-02-25T01:39:00.568Z,20.63
2018-02-25T01:39:32.206Z,20.65
2018-02-25T01:40:03.830Z,20.66
2018-02-25T01:40:35.454Z,20.64
2018-02-25T01:41:07.130Z,20.65
2018-02-25T01:41:38.753Z,20.67
2018-02-25T01:42:10.379Z,20.72
2018-02-25T01:42:42.054Z,20.73
2018-02-25T01:43:13.682Z,20.77
2018-02-25T01:43:45.306Z,20.77
2018-02-25T01:44:16.933Z,20.78
2018-02-25T01:44:48.559Z,20.81
2018-02-25T01:45:20.186Z,20.80
2018-02-25T01:45:51.810Z,20.84
2018-02-25T01:46:23.435Z,20.88
2018-02-25T01:46:55.057Z,20.91
2018-02-25T01:47:26.687Z,20.93
2018-02-25T01:47:58.546Z,20.93
2018-02-25T01:48:30.174Z,20.94
2018-02-25T01:49:01.798Z,20.96
2018-02-25T01:49:33.431Z,20.94
2018-02-25T01:50:05.059Z,20.92
2018-02-25T01:50:36.690Z,20.94
2018-02-25T01:51:08.314Z,20.98
2018-02-25T01:51:39.941Z,20.97
2018-02-25T01:52:11.567Z,21.01
2018-02-25T01:52:43.195Z,20.97
2018-02-25T01:53:14.867Z,20.96
2018-02-25T01:53:46.498Z,20.96
2018-02-25T01:54:18.122Z,20.93
2018-02-25T01:54:49.794Z,20.94
2018-02-25T01:55:21.423Z,20.92
2018-02-25T01:55:53.047Z,20.93
2018-02-25T01:56:24.677Z,20.89
2018-02-25T01:56:56.298Z,20.89
2018-02-25T01:57:27.921Z,20.89
2018-02-25T01:57:59.550Z,20.88
2018-02-25T01:58:31.230Z,20.86
2018-02-25T01:59:02.865Z,20.88
2018-02-25T01:59:34.493Z,20.87
2018-02-25T02:00:06.118Z,20.90
2018-02-25T02:00:37.746Z,20.90
2018-02-25T02:01:09.379Z,20.88
2018-02-25T02:01:41.006Z,20.92
2018-02-25T02:02:12.634Z,20.91
2018-02-25T02:02:44.258Z,20.92
2018-02-25T02:03:15.881Z,20.92
2018-02-25T02:03:47.550Z,20.87
2018-02-25T02:04:19.169Z,20.83
2018-02-25T02:04:50.793Z,20.84
2018-02-25T02:05:22.416Z,20.82
2018-02-25T02:05:54.042Z,20.79
2018-02-25T02:06:25.715Z,20.77
2018-02-25T02:06:57.367Z,20.74
2018-02-25T02:07:28.989Z,20.73
2018-02-25T02:08:00.618Z,20.73
2018-02-25T02:08:32.246Z,20.75
2018-02-25T02:09:03.883Z,20.73
2018-02-25T02:09:35.525Z,20.72
2018-02-25T02:10:07.207Z,20.70
2018-02-25T02:10:38.829Z,20.70
2018-02-25T02:11:10.459Z,20.68
2018-02-25T02:11:42.082Z,20.65
2018-02-25T02:12:13.718Z,20.61
2018-02-25T02:12:45.358Z,20.63
2018-02-25T02:13:16.987Z,20.60
2018-02-25T02:13:48.611Z,20.57
2018-02-25T02:14:20.242Z,20.51
2018-02-25T02:14:52.317Z,20.50
2018-02-25T02:15:23.982Z,20.47
2018-02-25T02:15:55.607Z,20.49
2018-02-25T02:16:27.265Z,20.48
2018-02-25T02:16:58.896Z,20.48
2018-02-25T02:17:30.528Z,20.45
2018-02-25T02:18:02.158Z,20.42
2018-02-25T02:18:33.786Z,20.40
2018-02-25T02:19:05.415Z,20.39
2018-02-25T02:19:37.037Z,20.39
2018-02-25T02:20:08.711Z,20.36
2018-02-25T02:20:40.384Z,20.32
2018-02-25T02:21:12.014Z,20.30
2018-02-25T02:21:43.647Z,20.25
2018-02-25T02:22:15.270Z,20.23
2018-02-25T02:22:46.894Z,20.21
2018-02-25T02:23:18.527Z,20.21
2018-02-25T02:23:50.154Z,20.22
2018-02-25T02:24:21.777Z,20.19
2018-02-25T02:24:53.400Z,20.20
2018-02-25T02:25:25.079Z,20.21
2018-02-25T02:25:56.702Z,20.20
2018-02-25T02:26:28.329Z,20.20
2018-02-25T02:26:59.953Z,20.18
2018-02-25T02:27:31.634Z,20.14
2018-02-25T02:28:03.258Z,20.13
2018-02-25T02:28:34.890Z,20.13
2018-02-25T02:29:06.517Z,20.12
2018-02-25T02:29:38.146Z,20.16
2018-02-25T02:30:09.776Z,20.20
2018-02-25T02:30:41.406Z,20.20
2018-02-25T02:31:13.030Z,20.16
2018-02-25T02:31:44.671Z,20.11
2018-02-25T02:32:16.316Z,20.04
2018-02-25T02:32:47.986Z,20.04
2018-02-25T02:33:19.613Z,20.04
2018-02-25T02:33:51.245Z,20.05
2018-02-25T02:34:22.876Z,20.07
2018-02-25T02:34:54.498Z,20.08
2018-02-25T02:35:26.118Z,20.07
2018-02-25T02:35:57.747Z,20.05
2018-02-25T02:36:29.418Z,20.01
2018-02-25T02:37:01.051Z,20.02
2018-02-25T02:37:32.673Z,19.97
2018-02-25T02:38:04.306Z,19.95
2018-02-25T02:38:35.986Z,19.93
2018-02-25T02:39:07.615Z,19.91
2018-02-25T02:39:39.238Z,19.90
2018-02-25T02:40:10.863Z,19.90
2018-02-25T02:40:42.490Z,19.89
2018-02-25T02:41:14.120Z,19.89
2018-02-25T02:41:45.753Z,19.89
2018-02-25T02:42:17.384Z,19.90
2018-02-25T02:42:49.009Z,19.89
2018-02-25T02:43:20.630Z,19.88
2018-02-25T02:43:52.318Z,19.86
2018-02-25T02:44:23.971Z,19.88
2018-02-25T02:44:55.598Z,19.86
2018-02-25T02:45:27.230Z,19.87
2018-02-25T02:45:58.862Z,19.90
2018-02-25T02:46:30.485Z,19.92
2018-02-25T02:47:02.114Z,19.95
2018-02-25T02:47:33.918Z,19.97
2018-02-25T02:48:05.547Z,19.98
2018-02-25T02:48:37.187Z,20.01
2018-02-25T02:49:08.822Z,20.05
2018-02-25T02:49:40.451Z,20.10
2018-02-25T02:50:12.083Z,20.10
2018-02-25T02:50:43.768Z,20.16
2018-02-25T02:51:15.418Z,20.16
2018-02-25T02:51:47.060Z,20.21
2018-02-25T02:52:18.686Z,20.20
2018-02-25T02:52:50.320Z,20.21
2018-02-25T02:53:21.955Z,20.21
2018-02-25T02:53:53.578Z,20.22
2018-02-25T02:54:25.202Z,20.20
2018-02-25T02:54:56.830Z,20.22
2018-02-25T02:55:28.455Z,20.19
2018-02-25T02:56:00.202Z,20.19
2018-02-25T02:56:31.830Z,20.17
2018-02-25T02:57:03.465Z,20.20
2018-02-25T02:57:35.094Z,20.24
2018-02-25T02:58:06.718Z,20.26
2018-02-25T02:58:38.345Z,20.28
2018-02-25T02:59:09.975Z,20.28
2018-02-25T02:59:41.607Z,20.29
2018-02-25T03:00:13.230Z,20.30
2018-02-25T03:00:44.858Z,20.32
2018-02-25T03:01:16.515Z,20.34
2018-02-25T03:01:48.144Z,20.35
2018-02-25T03:02:19.774Z,20.38
2018-02-25T03:02:51.402Z,20.40
2018-02-25T03:03:23.026Z,20.39
2018-02-25T03:03:54.666Z,20.39
2018-02-25T03:04:26.290Z,20.41
2018-02-25T03:04:57.971Z,20.45
2018-02-25T03:05:29.602Z,20.47
2018-02-25T03:06:01.227Z,20.50
2018-02-25T03:06:32.883Z,20.56
2018-02-25T03:07:04.506Z,20.59
2018-02-25T03:07:36.137Z,20.62
2018-02-25T03:08:07.765Z,20.65
2018-02-25T03:08:39.398Z,20.67
2018-02-25T03:09:11.023Z,20.69
2018-02-25T03:09:42.656Z,20.70
2018-02-25T03:10:14.333Z,20.74
2018-02-25T03:10:45.962Z,20.74
2018-02-25T03:11:17.591Z,20.77
2018-02-25T03:11:49.214Z,20.78
2018-02-25T03:12:20.845Z,20.79
2018-02-25T03:12:52.466Z,20.78
2018-02-25T03:13:24.094Z,20.79
2018-02-25T03:13:55.722Z,20.80
2018-02-25T03:14:27.345Z,20.79
2018-02-25T03:14:58.970Z,20.79
2018-02-25T03:15:30.650Z,20.82
2018-02-25T03:16:02.282Z,20.80
2018-02-25T03:16:33.902Z,20.77
2018-02-25T03:17:05.526Z,20.76
2018-02-25T03:17:37.173Z,20.76
2018-02-25T03:18:08.801Z,20.77
2018-02-25T03:18:40.429Z,20.77
2018-02-25T03:19:12.057Z,20.81
2018-02-25T03:19:43.686Z,20.85
2018-02-25T03:20:15.317Z,20.80
2018-02-25T03:20:46.982Z,20.84
2018-02-25T03:21:18.610Z,20.84
2018-02-25T03:21:50.234Z,20.80
2018-02-25T03:22:21.862Z,20.83
2018-02-25T03:22:53.497Z,20.83
2018-02-25T03:23:25.122Z,20.81
2018-02-25T03:23:56.745Z,20.79
2018-02-25T03:24:28.370Z,20.81
2018-02-25T03:25:00.002Z,20.78
2018-02-25T03:25:31.629Z,20.78
2018-02-25T03:26:03.294Z,20.78
2018-02-25T03:26:34.925Z,20.77
2018-02-25T03:27:06.559Z,20.75
2018-02-25T03:27:38.189Z,20.77
2018-02-25T03:28:09.814Z,20.80
2018-02-25T03:28:41.442Z,20.80
2018-02-25T03:29:13.093Z,20.77
2018-02-25T03:29:44.817Z,20.76
2018-02-25T03:30:16.447Z,20.75
2018-02-25T03:30:48.116Z,20.77
2018-02-25T03:31:19.743Z,20.75
2018-02-25T03:31:51.370Z,20.74
2018-02-25T03:32:22.994Z,20.72
2018-02-25T03:32:54.627Z,20.70
2018-02-25T03:33:26.263Z,20.72
2018-02-25T03:33:57.913Z,20.69
2018-02-25T03:34:29.560Z,20.67
2018-02-25T03:35:01.182Z,20.62
2018-02-25T03:35:32.851Z,20.64
2018-02-25T03:36:04.479Z,20.64
2018-02-25T03:36:36.102Z,20.61
2018-02-25T03:37:07.727Z,20.55
2018-02-25T03:37:39.351Z,20.50
2018-02-25T03:38:10.974Z,20.49
2018-02-25T03:38:42.597Z,20.48
2018-02-25T03:39:14.226Z,20.45
2018-02-25T03:39:45.909Z,20.43
2018-02-25T03:40:17.539Z,20.41
2018-02-25T03:40:49.170Z,20.41
2018-02-25T03:41:20.802Z,20.38
2018-02-25T03:41:52.425Z,20.34
2018-02-25T03:42:24.050Z,20.31
2018-02-25T03:42:55.678Z,20.27
2018-02-25T03:43:27.306Z,20.26
2018-02-25T03:43:58.936Z,20.23
2018-02-25T03:44:30.558Z,20.21
2018-02-25T03:45:02.225Z,20.16
2018-02-25T03:45:33.890Z,20.15
2018-02-25T03:46:05.518Z,20.12
2018-02-25T03:46:37.157Z,19.99
2018-02-25T03:47:08.826Z,20.10
2018-02-25T03:47:40.449Z,20.08
2018-02-25T03:48:12.117Z,20.05
2018-02-25T03:48:43.742Z,20.04
2018-02-25T03:49:15.366Z,20.03
2018-02-25T03:49:46.993Z,20.02
2018-02-25T03:50:18.618Z,20.01
2018-02-25T03:50:50.246Z,20.02
2018-02-25T03:51:21.874Z,20.02
2018-02-25T03:51:53.499Z,19.99
2018-02-25T03:52:25.170Z,20.02
2018-02-25T03:52:56.794Z,19.97
2018-02-25T03:53:28.419Z,19.95
2018-02-25T03:54:00.048Z,19.97
2018-02-25T03:54:31.678Z,19.95
2018-02-25T03:55:03.310Z,19.93
2018-02-25T03:55:34.938Z,19.93
2018-02-25T03:56:06.566Z,19.93
2018-02-25T03:56:38.190Z,19.92
2018-02-25T03:57:09.820Z,19.91
2018-02-25T03:57:41.490Z,19.89
2018-02-25T03:58:13.131Z,19.88
2018-02-25T03:58:44.759Z,19.86
2018-02-25T03:59:16.382Z,19.85
2018-02-25T03:59:48.029Z,19.83
2018-02-25T04:00:19.697Z,19.84
2018-02-25T04:00:51.323Z,19.88
2018-02-25T04:01:22.951Z,19.87
2018-02-25T04:01:54.573Z,19.87
2018-02-25T04:02:26.206Z,19.87
2018-02-25T04:02:57.894Z,19.87
2018-02-25T04:03:29.527Z,19.86
2018-02-25T04:04:01.155Z,19.85
2018-02-25T04:04:32.778Z,19.84
2018-02-25T04:05:04.405Z,19.83
2018-02-25T04:05:36.029Z,19.83
2018-02-25T04:06:07.659Z,19.81
2018-02-25T04:06:39.290Z,19.82
2018-02-25T04:07:10.919Z,19.80
2018-02-25T04:07:42.549Z,19.79
2018-02-25T04:08:14.226Z,19.81
2018-02-25T04:08:45.850Z,19.81
2018-02-25T04:09:17.474Z,19.82
2018-02-25T04:09:49.102Z,19.83
2018-02-25T04:10:20.725Z,19.83
2018-02-25T04:10:52.358Z,19.86
2018-02-25T04:11:23.986Z,19.88
2018-02-25T04:11:55.614Z,19.90
2018-02-25T04:12:27.246Z,19.91
2018-02-25T04:12:58.874Z,19.91
2018-02-25T04:13:30.543Z,19.92
2018-02-25T04:14:02.174Z,19.95
2018-02-25T04:14:33.849Z,19.98
2018-02-25T04:15:06.477Z,20.04
2018-02-25T04:15:38.102Z,20.05
2018-02-25T04:16:09.730Z,20.07
2018-02-25T04:16:41.362Z,20.08
2018-02-25T04:17:12.999Z,20.12
2018-02-25T04:17:44.635Z,20.15
2018-02-25T04:18:16.267Z,20.15
2018-02-25T04:18:47.897Z,20.12
2018-02-25T04:19:19.522Z,20.15
2018-02-25T04:19:51.202Z,20.14
2018-02-25T04:20:22.822Z,20.19
2018-02-25T04:20:54.446Z,20.22
2018-02-25T04:21:26.079Z,20.23
2018-02-25T04:21:57.710Z,20.19
2018-02-25T04:22:29.338Z,20.20
2018-02-25T04:23:00.966Z,20.20
2018-02-25T04:23:32.590Z,20.23
2018-02-25T04:24:04.218Z,20.25
2018-02-25T04:24:35.852Z,20.27
2018-02-25T04:25:07.521Z,20.28
2018-02-25T04:25:39.146Z,20.32
2018-02-25T04:26:10.770Z,20.33
2018-02-25T04:26:42.398Z,20.36
2018-02-25T04:27:14.053Z,20.37
2018-02-25T04:27:45.689Z,20.39
2018-02-25T04:28:17.309Z,20.39
2018-02-25T04:28:48.942Z,20.43
2018-02-25T04:29:20.570Z,20.45
2018-02-25T04:29:52.242Z,20.48
2018-02-25T04:30:23.870Z,20.52
2018-02-25T04:30:55.493Z,20.55
2018-02-25T04:31:27.118Z,20.59
2018-02-25T04:31:58.738Z,20.62
2018-02-25T04:32:30.363Z,20.66
2018-02-25T04:33:01.986Z,20.68
2018-02-25T04:33:33.611Z,20.68
2018-02-25T04:34:05.239Z,20.71
2018-02-25T04:34:36.914Z,20.68
2018-02-25T04:35:08.541Z,20.69
2018-02-25T04:35:40.166Z,20.71
2018-02-25T04:36:11.794Z,20.71
2018-02-25T04:36:43.426Z,20.70
2018-02-25T04:37:15.098Z,20.72
2018-02-25T04:37:46.722Z,20.74
2018-02-25T04:38:18.346Z,20.75
2018-02-25T04:38:49.974Z,20.75
2018-02-25T04:39:21.598Z,20.75
2018-02-25T04:39:53.221Z,20.76
2018-02-25T04:40:24.846Z,20.81
2018-02-25T04:40:56.478Z,20.83
2018-02-25T04:41:28.109Z,20.84
2018-02-25T04:41:59.735Z,20.80
2018-02-25T04:42:31.367Z,20.82
2018-02-25T04:43:02.993Z,20.86
2018-02-25T04:43:34.621Z,20.86
2018-02-25T04:44:06.278Z,20.86
2018-02-25T04:44:37.907Z,20.81
2018-02-25T04:45:09.536Z,20.78
2018-02-25T04:45:41.158Z,20.76
2018-02-25T04:46:12.830Z,20.77
2018-02-25T04:46:44.454Z,20.76
2018-02-25T04:47:16.077Z,20.74
2018-02-25T04:47:47.701Z,20.73
2018-02-25T04:48:19.321Z,20.72
2018-02-25T04:48:50.946Z,20.71
2018-02-25T04:49:22.575Z,20.70
2018-02-25T04:49:54.206Z,20.70
2018-02-25T04:50:25.834Z,20.67
2018-02-25T04:50:57.473Z,20.65
2018-02-25T04:51:29.163Z,20.66
2018-02-25T04:52:00.791Z,20.61
2018-02-25T04:52:32.418Z,20.64
2018-02-25T04:53:04.046Z,20.61
2018-02-25T04:53:35.738Z,20.64
2018-02-25T04:54:07.366Z,20.65
2018-02-25T04:54:38.994Z,20.64
2018-02-25T04:55:10.620Z,20.65
2018-02-25T04:55:42.262Z,20.61
2018-02-25T04:56:13.914Z,20.61
2018-02-25T04:56:45.550Z,20.61
2018-02-25T04:57:17.174Z,20.59
2018-02-25T04:57:48.802Z,20.57
2018-02-25T04:58:20.444Z,20.52
2018-02-25T04:58:52.110Z,20.50
2018-02-25T04:59:23.733Z,20.47
2018-02-25T04:59:55.358Z,20.42
2018-02-25T05:00:26.982Z,20.39
2018-02-25T05:00:58.610Z,20.37
2018-02-25T05:01:30.238Z,20.35
2018-02-25T05:02:01.862Z,20.32
2018-02-25T05:02:33.526Z,20.32
2018-02-25T05:03:05.150Z,20.30
2018-02-25T05:03:36.786Z,20.29
2018-02-25T05:04:08.414Z,20.26
2018-02-25T05:04:40.037Z,20.25
2018-02-25T05:05:11.658Z,20.22
2018-02-25T05:05:43.286Z,20.22
2018-02-25T05:06:14.910Z,20.19
2018-02-25T05:06:46.586Z,20.18
2018-02-25T05:07:18.210Z,20.17
2018-02-25T05:07:49.834Z,20.16
2018-02-25T05:08:21.466Z,20.13
2018-02-25T05:08:53.102Z,20.11
2018-02-25T05:09:24.734Z,20.08
2018-02-25T05:09:56.366Z,20.03
2018-02-25T05:10:27.990Z,20.01
2018-02-25T05:10:59.622Z,19.99
2018-02-25T05:11:31.298Z,19.99
2018-02-25T05:12:02.931Z,19.96
2018-02-25T05:12:34.555Z,19.97
2018-02-25T05:13:06.182Z,19.95
2018-02-25T05:13:37.808Z,19.90
2018-02-25T05:14:09.443Z,19.90
2018-02-25T05:14:41.066Z,19.90
2018-02-25T05:15:12.734Z,19.88
2018-02-25T05:15:44.361Z,19.87
2018-02-25T05:16:15.986Z,19.86
2018-02-25T05:16:47.638Z,19.85
2018-02-25T05:17:19.262Z,19.85
2018-02-25T05:17:50.918Z,19.82
2018-02-25T05:18:22.542Z,19.79
2018-02-25T05:18:54.174Z,19.79
2018-02-25T05:19:25.800Z,19.76
2018-02-25T05:19:57.434Z,19.74
2018-02-25T05:20:29.087Z,19.73
2018-02-25T05:21:00.714Z,19.72
2018-02-25T05:21:32.342Z,19.73
2018-02-25T05:22:03.969Z,19.72
2018-02-25T05:22:35.598Z,19.74
2018-02-25T05:23:07.218Z,19.74
2018-02-25T05:23:38.846Z,19.74
2018-02-25T05:24:10.515Z,19.74
2018-02-25T05:24:42.159Z,19.74
2018-02-25T05:25:13.803Z,19.72
2018-02-25T05:25:45.473Z,19.71
2018-02-25T05:26:17.102Z,19.69
2018-02-25T05:26:48.730Z,19.66
2018-02-25T05:27:20.353Z,19.67
2018-02-25T05:27:51.982Z,19.67
2018-02-25T05:28:23.610Z,19.67
2018-02-25T05:28:55.250Z,19.67
2018-02-25T05:29:26.874Z,19.66
2018-02-25T05:29:58.502Z,19.65
2018-02-25T05:30:30.186Z,19.64
2018-02-25T05:31:01.811Z,19.63
2018-02-25T05:31:33.450Z,19.61
2018-02-25T05:32:05.081Z,19.59
2018-02-25T05:32:36.739Z,19.60
2018-02-25T05:33:08.371Z,19.60
2018-02-25T05:33:40.003Z,19.60
2018-02-25T05:34:11.630Z,19.61
2018-02-25T05:34:43.254Z,19.60
2018-02-25T05:35:14.877Z,19.61
2018-02-25T05:35:46.557Z,19.67
2018-02-25T05:36:18.182Z,19.71
2018-02-25T05:36:49.805Z,19.70
2018-02-25T05:37:21.429Z,19.70
2018-02-25T05:37:53.054Z,19.73
2018-02-25T05:38:24.684Z,19.79
2018-02-25T05:38:56.319Z,19.78
2018-02-25T05:39:27.951Z,19.83
2018-02-25T05:39:59.578Z,19.82
2018-02-25T05:40:31.202Z,19.89
2018-02-25T05:41:02.869Z,19.92
2018-02-25T05:41:34.501Z,19.97
2018-02-25T05:42:06.130Z,19.98
2018-02-25T05:42:37.753Z,19.98
2018-02-25T05:43:09.373Z,19.95
2018-02-25T05:43:41.003Z,19.98
2018-02-25T05:44:12.625Z,20.01
2018-02-25T05:44:44.246Z,20.04
2018-02-25T05:45:15.874Z,20.08
2018-02-25T05:45:47.548Z,20.12
2018-02-25T05:46:19.173Z,20.17
2018-02-25T05:46:50.794Z,20.18
2018-02-25T05:47:22.430Z,20.21
2018-02-25T05:47:54.067Z,20.24
2018-02-25T05:48:25.690Z,20.30
2018-02-25T05:48:57.357Z,20.31
2018-02-25T05:49:28.980Z,20.32
2018-02-25T05:50:00.602Z,20.34
2018-02-25T05:50:32.230Z,20.36
2018-02-25T05:51:03.853Z,20.42
2018-02-25T05:51:35.477Z,20.46
2018-02-25T05:52:07.107Z,20.58
2018-02-25T05:52:38.734Z,20.60
2018-02-25T05:53:10.559Z,20.64
2018-02-25T05:53:42.190Z,20.68
2018-02-25T05:54:13.813Z,20.69
2018-02-25T05:54:45.466Z,20.72
2018-02-25T05:55:17.102Z,20.73
2018-02-25T05:55:48.746Z,20.75
2018-02-25T05:56:20.374Z,20.77
2018-02-25T05:56:51.997Z,20.79
2018-02-25T05:57:23.626Z,20.84
2018-02-25T05:57:55.257Z,20.90
2018-02-25T05:58:26.930Z,20.88
2018-02-25T05:58:58.554Z,20.89
2018-02-25T05:59:30.177Z,20.94
2018-02-25T06:00:01.811Z,20.95
2018-02-25T06:00:33.437Z,20.96
2018-02-25T06:01:05.061Z,20.96
2018-02-25T06:01:36.682Z,20.95
2018-02-25T06:02:08.306Z,20.98
2018-02-25T06:02:39.978Z,20.98
2018-02-25T06:03:11.606Z,20.96
2018-02-25T06:03:43.230Z,20.94
2018-02-25T06:04:14.854Z,20.94
2018-02-25T06:04:46.477Z,20.90
2018-02-25T06:05:18.107Z,20.93
2018-02-25T06:05:49.785Z,20.90
2018-02-25T06:06:21.418Z,20.90
2018-02-25T06:06:53.042Z,20.89
2018-02-25T06:07:24.670Z,20.92
2018-02-25T06:07:56.300Z,20.90
2018-02-25T06:08:27.931Z,20.86
2018-02-25T06:08:59.562Z,20.86
2018-02-25T06:09:31.194Z,20.84
2018-02-25T06:10:02.821Z,20.83
2018-02-25T06:10:34.445Z,20.88
2018-02-25T06:11:06.126Z,20.80
2018-02-25T06:11:37.754Z,20.79
2018-02-25T06:12:09.387Z,20.78
2018-02-25T06:12:41.022Z,20.74
2018-02-25T06:13:12.654Z,20.76
2018-02-25T06:13:44.323Z,20.74
2018-02-25T06:14:15.946Z,20.54
2018-02-25T06:14:47.578Z,20.69
2018-02-25T06:15:19.202Z,20.68
2018-02-25T06:15:50.830Z,20.67
2018-02-25T06:16:22.453Z,20.64
2018-02-25T06:16:54.079Z,20.63
2018-02-25T06:17:25.751Z,20.67
2018-02-25T06:17:57.376Z,20.66
2018-02-25T06:18:29.004Z,20.62
2018-02-25T06:19:00.632Z,20.61
2018-02-25T06:19:32.254Z,20.64
2018-02-25T06:20:03.941Z,20.63
2018-02-25T06:20:35.583Z,20.60
2018-02-25T06:21:07.231Z,20.54
2018-02-25T06:21:38.858Z,20.51
2018-02-25T06:22:10.482Z,20.51
2018-02-25T06:22:42.110Z,20.49
2018-02-25T06:23:13.738Z,20.44
2018-02-25T06:23:45.370Z,20.42
2018-02-25T06:24:17.034Z,20.42
2018-02-25T06:24:48.657Z,20.41
2018-02-25T06:25:20.287Z,20.37
2018-02-25T06:25:51.930Z,20.38
2018-02-25T06:26:23.554Z,20.34
2018-02-25T06:26:55.199Z,20.30
2018-02-25T06:27:26.831Z,20.29
2018-02-25T06:27:58.462Z,20.25
2018-02-25T06:28:30.087Z,20.20
2018-02-25T06:29:01.734Z,20.19
2018-02-25T06:29:33.370Z,20.15
2018-02-25T06:30:04.995Z,20.14
2018-02-25T06:30:36.720Z,20.10
2018-02-25T06:31:08.354Z,20.08
2018-02-25T06:31:39.994Z,20.05
2018-02-25T06:32:11.622Z,20.00
2018-02-25T06:32:43.250Z,19.99
2018-02-25T06:33:14.882Z,19.98
2018-02-25T06:33:46.505Z,19.98
2018-02-25T06:34:18.131Z,19.94
2018-02-25T06:34:49.807Z,19.96
2018-02-25T06:35:21.434Z,19.95
2018-02-25T06:35:53.059Z,19.93
2018-02-25T06:36:24.690Z,19.90
2018-02-25T06:36:56.357Z,19.88
2018-02-25T06:37:27.989Z,19.87
2018-02-25T06:37:59.618Z,19.86
2018-02-25T06:38:31.250Z,19.86
2018-02-25T06:39:02.878Z,19.84
2018-02-25T06:39:34.506Z,19.83
2018-02-25T06:40:06.129Z,19.82
2018-02-25T06:40:37.750Z,19.79
2018-02-25T06:41:09.437Z,19.79
2018-02-25T06:41:41.058Z,19.77
2018-02-25T06:42:12.684Z,19.76
2018-02-25T06:42:44.314Z,19.76
2018-02-25T06:43:15.938Z,19.74
2018-02-25T06:43:47.557Z,19.73
2018-02-25T06:44:19.181Z,19.70
2018-02-25T06:44:50.810Z,19.72
2018-02-25T06:45:22.439Z,19.71
2018-02-25T06:45:54.102Z,19.70
2018-02-25T06:46:25.765Z,19.67
2018-02-25T06:46:57.395Z,19.67
2018-02-25T06:47:29.058Z,19.67